Flag for USA

Past Weather in Washington DC, USA — July 2016

Currently: 55 °F. Mostly cloudy. (Weather station: Reagan National Airport, USA). See more current weather

July 2016 Weather in Washington DC — Graph

°F

High & Low Weather Summary for July 2016

 TemperatureHumidityPressure
High99 °F (Jul 25, 3:52 pm)97% (Jul 4, 8:52 pm)30.22 "Hg (Jul 4, 8:52 pm)
Low65 °F (Jul 3, 6:52 am)30% (Jul 11, 6:52 pm)29.78 "Hg (Jul 8, 10:52 pm)
Average82 °F67%29.98 "Hg
* Reported Jul 1 12:52 am — Jul 31 11:52 pm, Washington DC. Weather by CustomWeather, © 2020

Note: Actual official high and low records may vary slightly from our data, if they occured in-between our weather recording intervals... More about our weather records

Washington DC Weather History for July 1, 2016

Scroll right to see more
 ConditionsComfort  
Time TempWeatherWind HumidityBarometerVisibility
12:52 am
Fri, Jul 1
75 °FOvercast.8 mph76%30.01 "Hg10 mi
1:52 am74 °FPassing clouds.6 mph79%29.99 "Hg10 mi
2:52 am73 °FClear.5 mph84%29.98 "Hg10 mi
3:52 am73 °FPassing clouds.3 mph84%29.97 "Hg10 mi
4:52 am72 °FPassing clouds.6 mph87%29.98 "Hg10 mi
5:52 am71 °FPassing clouds.3 mph90%29.97 "Hg10 mi
6:52 am73 °FBroken clouds.5 mph88%29.98 "Hg10 mi
7:52 am74 °FBroken clouds.5 mph88%29.98 "Hg10 mi
8:52 am76 °FPartly sunny.5 mph85%29.97 "Hg10 mi
9:52 am77 °FCloudy.5 mph82%29.97 "Hg10 mi
10:52 am80 °FPartly sunny.7 mph74%29.96 "Hg10 mi
11:52 am81 °FPartly sunny.12 mph72%29.94 "Hg10 mi
12:52 pm83 °FBroken clouds.9 mph70%29.93 "Hg10 mi
1:52 pm86 °FPartly sunny.10 mph61%29.92 "Hg10 mi
2:52 pm84 °FScattered clouds.10 mph70%29.88 "Hg10 mi
3:52 pm88 °FScattered clouds.10 mph57%29.86 "Hg10 mi
4:52 pm88 °FPartly sunny.9 mph57%29.86 "Hg10 mi
5:56 pm78 °FThunderstorms. Broken clouds.8 mph76%29.86 "Hg7 mi
6:52 pm80 °FBroken clouds.7 mph81%29.85 "Hg10 mi
7:52 pm80 °FScattered clouds.14 mph74%29.87 "Hg10 mi
8:52 pm78 °FBroken clouds.13 mph74%29.90 "Hg10 mi
9:52 pm77 °FPassing clouds.8 mph82%29.93 "Hg10 mi
10:02 pm76 °FPassing clouds.5 mph82%29.93 "Hg10 mi
10:52 pm76 °FPassing clouds.6 mph82%29.93 "Hg10 mi
11:52 pm74 °FPassing clouds.6 mph91%29.95 "Hg10 mi
Weather by CustomWeather, © 2020

See weather overview